sensor_id;sensor_type;location;lat;lon;timestamp;temperature;humidity
78571;SHT31;67861;51.966;5.672;2023-09-18T00:02:08;23.0;69.8
78571;SHT31;67861;51.966;5.672;2023-09-18T00:04:37;23.0;69.9
78571;SHT31;67861;51.966;5.672;2023-09-18T00:07:07;23.0;69.9
78571;SHT31;67861;51.966;5.672;2023-09-18T00:09:37;23.0;69.9
78571;SHT31;67861;51.966;5.672;2023-09-18T00:12:06;23.0;69.9
78571;SHT31;67861;51.966;5.672;2023-09-18T00:14:36;23.0;69.9
78571;SHT31;67861;51.966;5.672;2023-09-18T00:17:04;23.0;69.7
78571;SHT31;67861;51.966;5.672;2023-09-18T00:19:33;23.0;69.8
78571;SHT31;67861;51.966;5.672;2023-09-18T00:22:01;23.0;69.7
78571;SHT31;67861;51.966;5.672;2023-09-18T00:24:30;23.0;69.9
78571;SHT31;67861;51.966;5.672;2023-09-18T00:26:58;23.0;69.9
78571;SHT31;67861;51.966;5.672;2023-09-18T00:29:27;23.0;69.9
78571;SHT31;67861;51.966;5.672;2023-09-18T00:31:55;23.0;69.7
78571;SHT31;67861;51.966;5.672;2023-09-18T00:34:23;23.0;69.8
78571;SHT31;67861;51.966;5.672;2023-09-18T00:36:52;23.0;69.8
78571;SHT31;67861;51.966;5.672;2023-09-18T00:39:21;23.0;69.7
78571;SHT31;67861;51.966;5.672;2023-09-18T00:41:49;23.0;69.4
78571;SHT31;67861;51.966;5.672;2023-09-18T00:44:20;23.0;69.5
78571;SHT31;67861;51.966;5.672;2023-09-18T00:46:50;23.0;69.6
78571;SHT31;67861;51.966;5.672;2023-09-18T00:49:22;23.0;69.8
78571;SHT31;67861;51.966;5.672;2023-09-18T00:51:52;23.0;69.7
78571;SHT31;67861;51.966;5.672;2023-09-18T00:54:21;23.0;69.5
78571;SHT31;67861;51.966;5.672;2023-09-18T00:56:54;23.0;69.8
78571;SHT31;67861;51.966;5.672;2023-09-18T00:59:23;23.0;69.7
78571;SHT31;67861;51.966;5.672;2023-09-18T01:01:52;23.0;69.7
78571;SHT31;67861;51.966;5.672;2023-09-18T01:04:21;23.0;69.7
78571;SHT31;67861;51.966;5.672;2023-09-18T01:06:51;23.0;69.7
78571;SHT31;67861;51.966;5.672;2023-09-18T01:09:23;23.0;69.8
78571;SHT31;67861;51.966;5.672;2023-09-18T01:11:57;23.0;69.7
78571;SHT31;67861;51.966;5.672;2023-09-18T01:14:35;23.0;69.6
78571;SHT31;67861;51.966;5.672;2023-09-18T01:17:09;23.0;69.9
78571;SHT31;67861;51.966;5.672;2023-09-18T01:19:41;23.0;69.8
78571;SHT31;67861;51.966;5.672;2023-09-18T01:22:13;23.0;69.8
78571;SHT31;67861;51.966;5.672;2023-09-18T01:24:44;23.0;69.9
78571;SHT31;67861;51.966;5.672;2023-09-18T01:27:15;23.0;70.0
78571;SHT31;67861;51.966;5.672;2023-09-18T01:29:46;23.0;70.1
78571;SHT31;67861;51.966;5.672;2023-09-18T01:32:15;23.0;69.9
78571;SHT31;67861;51.966;5.672;2023-09-18T01:34:46;23.0;70.0
78571;SHT31;67861;51.966;5.672;2023-09-18T01:37:18;23.0;69.9
78571;SHT31;67861;51.966;5.672;2023-09-18T01:39:49;23.0;70.0
78571;SHT31;67861;51.966;5.672;2023-09-18T01:42:18;23.0;69.9
78571;SHT31;67861;51.966;5.672;2023-09-18T01:44:48;22.9;70.2
78571;SHT31;67861;51.966;5.672;2023-09-18T01:47:18;22.9;70.3
78571;SHT31;67861;51.966;5.672;2023-09-18T01:49:47;22.9;70.3
78571;SHT31;67861;51.966;5.672;2023-09-18T01:52:16;22.9;70.2
78571;SHT31;67861;51.966;5.672;2023-09-18T01:54:45;22.9;70.5
78571;SHT31;67861;51.966;5.672;2023-09-18T01:57:14;22.9;70.3
78571;SHT31;67861;51.966;5.672;2023-09-18T01:59:42;22.9;70.4
78571;SHT31;67861;51.966;5.672;2023-09-18T02:02:11;22.8;70.5
78571;SHT31;67861;51.966;5.672;2023-09-18T02:04:40;22.8;70.6
78571;SHT31;67861;51.966;5.672;2023-09-18T02:07:09;22.8;70.5
78571;SHT31;67861;51.966;5.672;2023-09-18T02:09:37;22.8;70.4
78571;SHT31;67861;51.966;5.672;2023-09-18T02:12:06;22.8;70.5
78571;SHT31;67861;51.966;5.672;2023-09-18T02:14:35;22.8;70.4
78571;SHT31;67861;51.966;5.672;2023-09-18T02:17:06;22.8;70.3
78571;SHT31;67861;51.966;5.672;2023-09-18T02:19:34;22.8;70.4
78571;SHT31;67861;51.966;5.672;2023-09-18T02:22:03;22.8;70.3
78571;SHT31;67861;51.966;5.672;2023-09-18T02:24:32;22.8;70.3
78571;SHT31;67861;51.966;5.672;2023-09-18T02:27:03;22.8;70.5
78571;SHT31;67861;51.966;5.672;2023-09-18T02:29:32;22.8;70.3
78571;SHT31;67861;51.966;5.672;2023-09-18T02:32:01;22.8;70.3
78571;SHT31;67861;51.966;5.672;2023-09-18T02:34:30;22.8;70.2
78571;SHT31;67861;51.966;5.672;2023-09-18T02:36:59;22.8;70.3
78571;SHT31;67861;51.966;5.672;2023-09-18T02:39:28;22.8;70.1
78571;SHT31;67861;51.966;5.672;2023-09-18T02:41:56;22.8;70.3
78571;SHT31;67861;51.966;5.672;2023-09-18T02:44:24;22.8;70.4
78571;SHT31;67861;51.966;5.672;2023-09-18T02:46:53;22.8;70.3
78571;SHT31;67861;51.966;5.672;2023-09-18T02:49:21;22.8;70.3
78571;SHT31;67861;51.966;5.672;2023-09-18T02:51:50;22.8;70.4
78571;SHT31;67861;51.966;5.672;2023-09-18T02:54:18;22.8;70.2
78571;SHT31;67861;51.966;5.672;2023-09-18T02:56:47;22.8;70.4
78571;SHT31;67861;51.966;5.672;2023-09-18T02:59:15;22.8;70.3
78571;SHT31;67861;51.966;5.672;2023-09-18T03:01:44;22.8;70.2
78571;SHT31;67861;51.966;5.672;2023-09-18T03:04:12;22.8;70.2
78571;SHT31;67861;51.966;5.672;2023-09-18T03:06:40;22.8;70.2
78571;SHT31;67861;51.966;5.672;2023-09-18T03:09:09;22.8;70.3
78571;SHT31;67861;51.966;5.672;2023-09-18T03:11:38;22.8;70.3
78571;SHT31;67861;51.966;5.672;2023-09-18T03:14:06;22.8;70.4
78571;SHT31;67861;51.966;5.672;2023-09-18T03:16:34;22.8;70.4
78571;SHT31;67861;51.966;5.672;2023-09-18T03:19:03;22.8;70.2
78571;SHT31;67861;51.966;5.672;2023-09-18T03:21:31;22.8;70.3
78571;SHT31;67861;51.966;5.672;2023-09-18T03:24:01;22.8;70.1
78571;SHT31;67861;51.966;5.672;2023-09-18T03:26:32;22.8;70.0
78571;SHT31;67861;51.966;5.672;2023-09-18T03:29:00;22.8;70.1
78571;SHT31;67861;51.966;5.672;2023-09-18T03:31:29;22.9;70.0
78571;SHT31;67861;51.966;5.672;2023-09-18T03:33:57;22.9;70.1
78571;SHT31;67861;51.966;5.672;2023-09-18T03:36:26;22.9;70.3
78571;SHT31;67861;51.966;5.672;2023-09-18T03:38:55;22.9;70.1
78571;SHT31;67861;51.966;5.672;2023-09-18T03:41:23;22.9;70.3
78571;SHT31;67861;51.966;5.672;2023-09-18T03:43:52;23.0;70.1
78571;SHT31;67861;51.966;5.672;2023-09-18T03:46:20;23.0;69.8
78571;SHT31;67861;51.966;5.672;2023-09-18T03:48:49;23.0;69.7
78571;SHT31;67861;51.966;5.672;2023-09-18T03:51:18;23.0;69.6
78571;SHT31;67861;51.966;5.672;2023-09-18T03:53:47;23.0;69.4
78571;SHT31;67861;51.966;5.672;2023-09-18T03:56:15;23.0;69.3
78571;SHT31;67861;51.966;5.672;2023-09-18T03:58:44;23.0;69.4
78571;SHT31;67861;51.966;5.672;2023-09-18T04:01:15;23.0;69.1
78571;SHT31;67861;51.966;5.672;2023-09-18T04:03:44;23.0;69.2
78571;SHT31;67861;51.966;5.672;2023-09-18T04:06:12;23.0;69.2
78571;SHT31;67861;51.966;5.672;2023-09-18T04:08:41;23.0;69.4
78571;SHT31;67861;51.966;5.672;2023-09-18T04:11:09;23.0;69.2
78571;SHT31;67861;51.966;5.672;2023-09-18T04:13:38;23.0;69.1
78571;SHT31;67861;51.966;5.672;2023-09-18T04:16:07;23.0;69.3
78571;SHT31;67861;51.966;5.672;2023-09-18T04:18:35;23.0;69.2
78571;SHT31;67861;51.966;5.672;2023-09-18T04:21:04;23.0;69.2
78571;SHT31;67861;51.966;5.672;2023-09-18T04:23:32;23.0;69.2
78571;SHT31;67861;51.966;5.672;2023-09-18T04:26:04;23.0;69.2
78571;SHT31;67861;51.966;5.672;2023-09-18T04:28:33;23.0;69.3
78571;SHT31;67861;51.966;5.672;2023-09-18T04:31:01;23.0;69.6
78571;SHT31;67861;51.966;5.672;2023-09-18T04:33:29;23.0;69.5
78571;SHT31;67861;51.966;5.672;2023-09-18T04:35:58;23.0;69.5
78571;SHT31;67861;51.966;5.672;2023-09-18T04:38:26;23.0;69.6
78571;SHT31;67861;51.966;5.672;2023-09-18T04:41:00;23.0;69.5
78571;SHT31;67861;51.966;5.672;2023-09-18T04:43:29;23.0;69.6
78571;SHT31;67861;51.966;5.672;2023-09-18T04:45:57;23.0;69.6
78571;SHT31;67861;51.966;5.672;2023-09-18T04:48:26;23.0;69.8
78571;SHT31;67861;51.966;5.672;2023-09-18T04:50:54;23.0;69.9
78571;SHT31;67861;51.966;5.672;2023-09-18T04:53:23;23.0;70.0
78571;SHT31;67861;51.966;5.672;2023-09-18T04:55:51;23.0;70.1
78571;SHT31;67861;51.966;5.672;2023-09-18T04:58:21;23.0;70.9
78571;SHT31;67861;51.966;5.672;2023-09-18T05:00:55;23.0;71.8
78571;SHT31;67861;51.966;5.672;2023-09-18T05:03:24;23.0;72.1
78571;SHT31;67861;51.966;5.672;2023-09-18T05:05:55;23.0;72.2
78571;SHT31;67861;51.966;5.672;2023-09-18T05:08:23;23.0;72.3
78571;SHT31;67861;51.966;5.672;2023-09-18T05:10:52;23.0;72.4
78571;SHT31;67861;51.966;5.672;2023-09-18T05:13:21;22.9;72.7
78571;SHT31;67861;51.966;5.672;2023-09-18T05:15:49;22.9;72.8
78571;SHT31;67861;51.966;5.672;2023-09-18T05:18:18;22.9;72.7
78571;SHT31;67861;51.966;5.672;2023-09-18T05:20:47;22.9;72.8
78571;SHT31;67861;51.966;5.672;2023-09-18T05:23:15;22.9;72.6
78571;SHT31;67861;51.966;5.672;2023-09-18T05:25:44;23.0;72.7
78571;SHT31;67861;51.966;5.672;2023-09-18T05:28:13;23.0;72.3
78571;SHT31;67861;51.966;5.672;2023-09-18T05:30:41;23.0;72.3
78571;SHT31;67861;51.966;5.672;2023-09-18T05:33:10;23.0;72.5
78571;SHT31;67861;51.966;5.672;2023-09-18T05:35:43;23.0;72.2
78571;SHT31;67861;51.966;5.672;2023-09-18T05:38:13;23.0;71.8
78571;SHT31;67861;51.966;5.672;2023-09-18T05:40:47;23.0;71.9
78571;SHT31;67861;51.966;5.672;2023-09-18T05:43:17;23.1;71.6
78571;SHT31;67861;51.966;5.672;2023-09-18T05:45:46;23.1;71.7
78571;SHT31;67861;51.966;5.672;2023-09-18T05:48:16;23.1;71.3
78571;SHT31;67861;51.966;5.672;2023-09-18T05:50:44;23.1;71.5
78571;SHT31;67861;51.966;5.672;2023-09-18T05:53:14;23.1;71.1
78571;SHT31;67861;51.966;5.672;2023-09-18T05:55:42;23.1;71.2
78571;SHT31;67861;51.966;5.672;2023-09-18T05:58:11;23.2;71.2
78571;SHT31;67861;51.966;5.672;2023-09-18T06:00:42;23.2;70.9
78571;SHT31;67861;51.966;5.672;2023-09-18T06:03:10;23.2;71.2
78571;SHT31;67861;51.966;5.672;2023-09-18T06:05:39;23.2;71.2
78571;SHT31;67861;51.966;5.672;2023-09-18T06:08:07;23.2;71.2
78571;SHT31;67861;51.966;5.672;2023-09-18T06:10:36;23.2;71.0
78571;SHT31;67861;51.966;5.672;2023-09-18T06:13:04;23.2;70.9
78571;SHT31;67861;51.966;5.672;2023-09-18T06:15:33;23.2;71.0
78571;SHT31;67861;51.966;5.672;2023-09-18T06:18:02;23.2;71.3
78571;SHT31;67861;51.966;5.672;2023-09-18T06:20:34;23.3;71.3
78571;SHT31;67861;51.966;5.672;2023-09-18T06:23:03;23.3;71.2
78571;SHT31;67861;51.966;5.672;2023-09-18T06:25:31;23.2;71.4
78571;SHT31;67861;51.966;5.672;2023-09-18T06:28:00;23.2;71.2
78571;SHT31;67861;51.966;5.672;2023-09-18T06:30:31;23.2;71.2
78571;SHT31;67861;51.966;5.672;2023-09-18T06:33:03;23.2;71.1
78571;SHT31;67861;51.966;5.672;2023-09-18T06:35:32;23.2;71.5
78571;SHT31;67861;51.966;5.672;2023-09-18T06:38:00;23.2;71.7
78571;SHT31;67861;51.966;5.672;2023-09-18T06:40:29;23.2;71.7
78571;SHT31;67861;51.966;5.672;2023-09-18T06:43:00;23.2;71.5
78571;SHT31;67861;51.966;5.672;2023-09-18T06:45:28;23.2;71.6
78571;SHT31;67861;51.966;5.672;2023-09-18T06:48:01;23.2;71.5
78571;SHT31;67861;51.966;5.672;2023-09-18T06:50:29;23.2;71.7
78571;SHT31;67861;51.966;5.672;2023-09-18T06:52:58;23.2;71.6
78571;SHT31;67861;51.966;5.672;2023-09-18T06:55:26;23.2;71.8
78571;SHT31;67861;51.966;5.672;2023-09-18T06:57:55;23.2;71.8
78571;SHT31;67861;51.966;5.672;2023-09-18T07:00:24;23.2;71.7
78571;SHT31;67861;51.966;5.672;2023-09-18T07:02:52;23.2;71.3
78571;SHT31;67861;51.966;5.672;2023-09-18T07:05:22;23.2;71.3
78571;SHT31;67861;51.966;5.672;2023-09-18T07:07:51;23.2;71.2
78571;SHT31;67861;51.966;5.672;2023-09-18T07:10:19;23.2;71.2
78571;SHT31;67861;51.966;5.672;2023-09-18T07:12:47;23.2;71.4
78571;SHT31;67861;51.966;5.672;2023-09-18T07:15:16;23.2;71.2
78571;SHT31;67861;51.966;5.672;2023-09-18T07:17:45;23.2;71.4
78571;SHT31;67861;51.966;5.672;2023-09-18T07:20:14;23.2;71.3
78571;SHT31;67861;51.966;5.672;2023-09-18T07:22:46;23.2;71.2
78571;SHT31;67861;51.966;5.672;2023-09-18T07:25:16;23.1;71.3
78571;SHT31;67861;51.966;5.672;2023-09-18T07:27:45;23.1;71.2
78571;SHT31;67861;51.966;5.672;2023-09-18T07:30:14;23.1;71.1
78571;SHT31;67861;51.966;5.672;2023-09-18T07:32:45;23.1;71.2
78571;SHT31;67861;51.966;5.672;2023-09-18T07:35:14;23.1;71.0
78571;SHT31;67861;51.966;5.672;2023-09-18T07:37:43;23.1;71.1
78571;SHT31;67861;51.966;5.672;2023-09-18T07:40:15;23.1;71.1
78571;SHT31;67861;51.966;5.672;2023-09-18T07:42:44;23.1;71.3
78571;SHT31;67861;51.966;5.672;2023-09-18T07:45:13;23.1;71.6
78571;SHT31;67861;51.966;5.672;2023-09-18T07:47:42;23.1;71.4
78571;SHT31;67861;51.966;5.672;2023-09-18T07:50:10;23.1;71.5
78571;SHT31;67861;51.966;5.672;2023-09-18T07:52:39;23.1;71.0
78571;SHT31;67861;51.966;5.672;2023-09-18T07:55:08;23.0;70.9
78571;SHT31;67861;51.966;5.672;2023-09-18T07:57:37;23.0;71.2
78571;SHT31;67861;51.966;5.672;2023-09-18T08:00:07;23.0;71.4
78571;SHT31;67861;51.966;5.672;2023-09-18T08:02:39;23.0;71.1
78571;SHT31;67861;51.966;5.672;2023-09-18T08:05:08;23.0;71.1
78571;SHT31;67861;51.966;5.672;2023-09-18T08:07:37;23.0;71.1
78571;SHT31;67861;51.966;5.672;2023-09-18T08:10:08;23.1;71.3
78571;SHT31;67861;51.966;5.672;2023-09-18T08:12:38;23.1;71.1
78571;SHT31;67861;51.966;5.672;2023-09-18T08:15:07;23.1;71.1
78571;SHT31;67861;51.966;5.672;2023-09-18T08:17:37;23.1;70.6
78571;SHT31;67861;51.966;5.672;2023-09-18T08:20:08;23.1;70.3
78571;SHT31;67861;51.966;5.672;2023-09-18T08:22:39;23.1;70.7
78571;SHT31;67861;51.966;5.672;2023-09-18T08:25:08;23.1;70.8
78571;SHT31;67861;51.966;5.672;2023-09-18T08:27:39;23.1;70.8
78571;SHT31;67861;51.966;5.672;2023-09-18T08:30:11;23.1;70.6
78571;SHT31;67861;51.966;5.672;2023-09-18T08:32:42;23.1;69.6
78571;SHT31;67861;51.966;5.672;2023-09-18T08:35:11;23.1;69.8
78571;SHT31;67861;51.966;5.672;2023-09-18T08:37:41;23.1;69.4
78571;SHT31;67861;51.966;5.672;2023-09-18T08:40:12;23.1;69.7
78571;SHT31;67861;51.966;5.672;2023-09-18T08:42:45;23.1;70.3
78571;SHT31;67861;51.966;5.672;2023-09-18T08:45:19;23.1;69.6
78571;SHT31;67861;51.966;5.672;2023-09-18T08:47:51;23.1;70.4
78571;SHT31;67861;51.966;5.672;2023-09-18T08:50:21;23.1;70.5
78571;SHT31;67861;51.966;5.672;2023-09-18T08:52:52;23.1;70.4
78571;SHT31;67861;51.966;5.672;2023-09-18T08:55:21;23.1;68.9
78571;SHT31;67861;51.966;5.672;2023-09-18T08:57:53;23.1;69.5
78571;SHT31;67861;51.966;5.672;2023-09-18T09:00:21;23.1;69.8
78571;SHT31;67861;51.966;5.672;2023-09-18T09:02:50;23.2;69.7
78571;SHT31;67861;51.966;5.672;2023-09-18T09:05:20;23.2;69.5
78571;SHT31;67861;51.966;5.672;2023-09-18T09:07:51;23.2;68.5
78571;SHT31;67861;51.966;5.672;2023-09-18T09:10:20;23.2;69.1
78571;SHT31;67861;51.966;5.672;2023-09-18T09:12:54;23.2;68.7
78571;SHT31;67861;51.966;5.672;2023-09-18T09:15:26;23.2;68.3
78571;SHT31;67861;51.966;5.672;2023-09-18T09:18:04;23.2;69.0
78571;SHT31;67861;51.966;5.672;2023-09-18T09:20:34;23.3;69.2
78571;SHT31;67861;51.966;5.672;2023-09-18T09:23:05;23.3;68.2
78571;SHT31;67861;51.966;5.672;2023-09-18T09:25:35;23.3;68.4
78571;SHT31;67861;51.966;5.672;2023-09-18T09:28:06;23.3;68.6
78571;SHT31;67861;51.966;5.672;2023-09-18T09:30:36;23.4;69.5
78571;SHT31;67861;51.966;5.672;2023-09-18T09:33:06;23.4;69.3
78571;SHT31;67861;51.966;5.672;2023-09-18T09:35:36;23.4;68.3
78571;SHT31;67861;51.966;5.672;2023-09-18T09:38:10;23.5;69.4
78571;SHT31;67861;51.966;5.672;2023-09-18T09:40:43;23.6;68.1
78571;SHT31;67861;51.966;5.672;2023-09-18T09:43:13;23.6;69.3
78571;SHT31;67861;51.966;5.672;2023-09-18T09:45:42;23.7;69.6
78571;SHT31;67861;51.966;5.672;2023-09-18T09:48:14;23.8;67.1
78571;SHT31;67861;51.966;5.672;2023-09-18T09:50:46;23.9;66.7
78571;SHT31;67861;51.966;5.672;2023-09-18T09:53:17;24.0;67.0
78571;SHT31;67861;51.966;5.672;2023-09-18T09:55:55;24.1;68.2
78571;SHT31;67861;51.966;5.672;2023-09-18T09:58:27;24.2;66.4
78571;SHT31;67861;51.966;5.672;2023-09-18T10:01:03;24.3;66.9
78571;SHT31;67861;51.966;5.672;2023-09-18T10:03:38;24.4;66.0
78571;SHT31;67861;51.966;5.672;2023-09-18T10:06:11;24.5;65.3
78571;SHT31;67861;51.966;5.672;2023-09-18T10:08:40;24.6;65.1
78571;SHT31;67861;51.966;5.672;2023-09-18T10:11:15;24.6;64.2
78571;SHT31;67861;51.966;5.672;2023-09-18T10:13:47;24.7;62.8
78571;SHT31;67861;51.966;5.672;2023-09-18T10:16:18;24.7;62.4
78571;SHT31;67861;51.966;5.672;2023-09-18T10:21:38;24.7;62.2
78571;SHT31;67861;51.966;5.672;2023-09-18T10:24:17;24.7;62.2
78571;SHT31;67861;51.966;5.672;2023-09-18T10:26:55;24.7;61.8
78571;SHT31;67861;51.966;5.672;2023-09-18T10:29:25;24.7;61.8
78571;SHT31;67861;51.966;5.672;2023-09-18T10:31:54;24.7;62.2
78571;SHT31;67861;51.966;5.672;2023-09-18T10:34:24;24.7;62.0
78571;SHT31;67861;51.966;5.672;2023-09-18T10:36:54;24.7;61.9
78571;SHT31;67861;51.966;5.672;2023-09-18T10:39:25;24.7;61.9
78571;SHT31;67861;51.966;5.672;2023-09-18T10:41:55;24.7;61.6
78571;SHT31;67861;51.966;5.672;2023-09-18T10:44:26;24.7;62.1
78571;SHT31;67861;51.966;5.672;2023-09-18T10:46:55;24.6;61.4
78571;SHT31;67861;51.966;5.672;2023-09-18T10:49:25;24.6;61.6
78571;SHT31;67861;51.966;5.672;2023-09-18T10:51:56;24.6;62.0
78571;SHT31;67861;51.966;5.672;2023-09-18T10:54:26;24.6;62.5
78571;SHT31;67861;51.966;5.672;2023-09-18T10:56:56;24.6;62.7
78571;SHT31;67861;51.966;5.672;2023-09-18T10:59:29;24.6;62.5
78571;SHT31;67861;51.966;5.672;2023-09-18T11:02:04;24.6;63.0
78571;SHT31;67861;51.966;5.672;2023-09-18T11:04:33;24.6;62.5
78571;SHT31;67861;51.966;5.672;2023-09-18T11:07:03;24.6;62.7
78571;SHT31;67861;51.966;5.672;2023-09-18T11:09:43;24.6;61.9
78571;SHT31;67861;51.966;5.672;2023-09-18T11:12:15;24.6;62.3
78571;SHT31;67861;51.966;5.672;2023-09-18T11:14:46;24.6;63.3
78571;SHT31;67861;51.966;5.672;2023-09-18T11:17:29;24.7;64.5
78571;SHT31;67861;51.966;5.672;2023-09-18T11:20:04;24.7;62.5
78571;SHT31;67861;51.966;5.672;2023-09-18T11:22:35;24.8;62.1
78571;SHT31;67861;51.966;5.672;2023-09-18T11:26:22;24.8;61.7
78571;SHT31;67861;51.966;5.672;2023-09-18T11:28:54;24.9;61.2
78571;SHT31;67861;51.966;5.672;2023-09-18T11:31:47;24.9;59.9
78571;SHT31;67861;51.966;5.672;2023-09-18T11:34:21;24.9;60.2
78571;SHT31;67861;51.966;5.672;2023-09-18T11:36:51;25.0;60.5
78571;SHT31;67861;51.966;5.672;2023-09-18T11:39:36;25.0;60.1
78571;SHT31;67861;51.966;5.672;2023-09-18T11:42:09;25.0;60.5
78571;SHT31;67861;51.966;5.672;2023-09-18T11:44:38;25.0;60.0
78571;SHT31;67861;51.966;5.672;2023-09-18T11:47:14;25.1;60.0
78571;SHT31;67861;51.966;5.672;2023-09-18T11:49:49;25.1;59.7
78571;SHT31;67861;51.966;5.672;2023-09-18T11:52:21;25.1;59.7
78571;SHT31;67861;51.966;5.672;2023-09-18T11:54:49;25.1;60.3
78571;SHT31;67861;51.966;5.672;2023-09-18T11:57:19;25.1;59.5
78571;SHT31;67861;51.966;5.672;2023-09-18T11:59:48;25.2;59.5
78571;SHT31;67861;51.966;5.672;2023-09-18T12:02:25;25.2;59.0
78571;SHT31;67861;51.966;5.672;2023-09-18T12:04:54;25.3;58.2
78571;SHT31;67861;51.966;5.672;2023-09-18T12:07:25;25.3;57.9
78571;SHT31;67861;51.966;5.672;2023-09-18T12:09:53;25.3;57.3
78571;SHT31;67861;51.966;5.672;2023-09-18T12:12:23;25.3;57.6
78571;SHT31;67861;51.966;5.672;2023-09-18T12:14:52;25.3;57.6
78571;SHT31;67861;51.966;5.672;2023-09-18T12:17:20;25.3;56.9
78571;SHT31;67861;51.966;5.672;2023-09-18T12:19:53;25.3;57.1
78571;SHT31;67861;51.966;5.672;2023-09-18T12:22:26;25.3;57.8
78571;SHT31;67861;51.966;5.672;2023-09-18T12:25:11;25.3;59.2
78571;SHT31;67861;51.966;5.672;2023-09-18T12:27:40;25.3;59.3
78571;SHT31;67861;51.966;5.672;2023-09-18T12:30:10;25.4;59.1
78571;SHT31;67861;51.966;5.672;2023-09-18T12:32:42;25.4;59.3
78571;SHT31;67861;51.966;5.672;2023-09-18T12:35:13;25.5;58.1
78571;SHT31;67861;51.966;5.672;2023-09-18T12:37:45;25.5;59.0
78571;SHT31;67861;51.966;5.672;2023-09-18T12:40:23;25.6;58.4
78571;SHT31;67861;51.966;5.672;2023-09-18T12:42:53;25.6;58.3
78571;SHT31;67861;51.966;5.672;2023-09-18T12:45:22;25.7;58.2
78571;SHT31;67861;51.966;5.672;2023-09-18T12:47:53;25.7;57.2
78571;SHT31;67861;51.966;5.672;2023-09-18T12:50:22;25.8;56.5
78571;SHT31;67861;51.966;5.672;2023-09-18T12:52:51;25.8;56.0
78571;SHT31;67861;51.966;5.672;2023-09-18T12:55:24;25.8;56.7
78571;SHT31;67861;51.966;5.672;2023-09-18T12:57:54;25.8;56.7
78571;SHT31;67861;51.966;5.672;2023-09-18T13:00:23;25.8;55.9
78571;SHT31;67861;51.966;5.672;2023-09-18T13:02:53;25.9;57.0
78571;SHT31;67861;51.966;5.672;2023-09-18T13:05:23;25.9;56.1
78571;SHT31;67861;51.966;5.672;2023-09-18T13:07:54;25.9;55.5
78571;SHT31;67861;51.966;5.672;2023-09-18T13:10:23;25.9;56.5
78571;SHT31;67861;51.966;5.672;2023-09-18T13:12:53;26.0;57.1
78571;SHT31;67861;51.966;5.672;2023-09-18T13:15:29;26.0;55.3
78571;SHT31;67861;51.966;5.672;2023-09-18T13:18:00;26.0;56.1
78571;SHT31;67861;51.966;5.672;2023-09-18T13:20:30;26.1;56.6
78571;SHT31;67861;51.966;5.672;2023-09-18T13:23:00;26.1;55.8
78571;SHT31;67861;51.966;5.672;2023-09-18T13:25:32;26.2;55.6
78571;SHT31;67861;51.966;5.672;2023-09-18T13:28:02;26.2;54.6
78571;SHT31;67861;51.966;5.672;2023-09-18T13:30:32;26.2;55.3
78571;SHT31;67861;51.966;5.672;2023-09-18T13:33:05;26.3;55.7
78571;SHT31;67861;51.966;5.672;2023-09-18T13:35:35;26.3;55.2
78571;SHT31;67861;51.966;5.672;2023-09-18T13:38:05;26.3;54.1
78571;SHT31;67861;51.966;5.672;2023-09-18T13:40:37;26.4;54.0
78571;SHT31;67861;51.966;5.672;2023-09-18T13:43:11;26.4;54.5
78571;SHT31;67861;51.966;5.672;2023-09-18T13:45:41;26.5;54.2
78571;SHT31;67861;51.966;5.672;2023-09-18T13:48:10;26.5;54.7
78571;SHT31;67861;51.966;5.672;2023-09-18T13:50:39;26.5;54.4
78571;SHT31;67861;51.966;5.672;2023-09-18T13:53:08;26.6;53.8
78571;SHT31;67861;51.966;5.672;2023-09-18T13:55:36;26.6;55.5
78571;SHT31;67861;51.966;5.672;2023-09-18T13:58:05;26.7;54.2
78571;SHT31;67861;51.966;5.672;2023-09-18T14:00:35;26.7;54.8
78571;SHT31;67861;51.966;5.672;2023-09-18T14:03:04;26.8;54.0
78571;SHT31;67861;51.966;5.672;2023-09-18T14:05:35;26.8;54.7
78571;SHT31;67861;51.966;5.672;2023-09-18T14:08:03;26.9;53.1
78571;SHT31;67861;51.966;5.672;2023-09-18T14:10:32;26.9;52.9
78571;SHT31;67861;51.966;5.672;2023-09-18T14:13:00;26.9;51.5
78571;SHT31;67861;51.966;5.672;2023-09-18T14:15:29;27.0;51.4
78571;SHT31;67861;51.966;5.672;2023-09-18T14:17:58;27.0;49.0
78571;SHT31;67861;51.966;5.672;2023-09-18T14:20:26;27.0;51.6
78571;SHT31;67861;51.966;5.672;2023-09-18T14:22:56;27.0;50.8
78571;SHT31;67861;51.966;5.672;2023-09-18T14:25:25;27.0;50.8
78571;SHT31;67861;51.966;5.672;2023-09-18T14:27:53;27.0;51.3
78571;SHT31;67861;51.966;5.672;2023-09-18T14:30:23;27.0;52.1
78571;SHT31;67861;51.966;5.672;2023-09-18T14:32:56;27.0;51.4
78571;SHT31;67861;51.966;5.672;2023-09-18T14:35:27;27.0;50.5
78571;SHT31;67861;51.966;5.672;2023-09-18T14:37:55;27.0;49.5
78571;SHT31;67861;51.966;5.672;2023-09-18T14:40:24;27.0;49.8
78571;SHT31;67861;51.966;5.672;2023-09-18T14:42:52;27.0;49.4
78571;SHT31;67861;51.966;5.672;2023-09-18T14:45:21;27.0;49.3
78571;SHT31;67861;51.966;5.672;2023-09-18T14:47:50;27.0;48.8
78571;SHT31;67861;51.966;5.672;2023-09-18T14:50:20;27.0;48.9
78571;SHT31;67861;51.966;5.672;2023-09-18T14:52:49;26.9;49.5
78571;SHT31;67861;51.966;5.672;2023-09-18T14:55:17;26.9;48.5
78571;SHT31;67861;51.966;5.672;2023-09-18T14:57:46;26.8;48.6
78571;SHT31;67861;51.966;5.672;2023-09-18T15:00:15;26.8;48.7
78571;SHT31;67861;51.966;5.672;2023-09-18T15:02:44;26.7;49.0
78571;SHT31;67861;51.966;5.672;2023-09-18T15:05:12;26.7;49.5
78571;SHT31;67861;51.966;5.672;2023-09-18T15:07:42;26.6;49.5
78571;SHT31;67861;51.966;5.672;2023-09-18T15:10:11;26.6;49.9
78571;SHT31;67861;51.966;5.672;2023-09-18T15:12:40;26.6;50.2
78571;SHT31;67861;51.966;5.672;2023-09-18T15:15:09;26.5;50.7
78571;SHT31;67861;51.966;5.672;2023-09-18T15:17:38;26.5;50.3
78571;SHT31;67861;51.966;5.672;2023-09-18T15:20:07;26.4;49.7
78571;SHT31;67861;51.966;5.672;2023-09-18T15:22:38;26.4;52.3
78571;SHT31;67861;51.966;5.672;2023-09-18T15:25:08;26.3;50.3
78571;SHT31;67861;51.966;5.672;2023-09-18T15:27:37;26.1;51.0
78571;SHT31;67861;51.966;5.672;2023-09-18T15:30:06;25.9;51.0
78571;SHT31;67861;51.966;5.672;2023-09-18T15:32:48;25.6;52.2
78571;SHT31;67861;51.966;5.672;2023-09-18T15:35:19;25.2;52.6
78571;SHT31;67861;51.966;5.672;2023-09-18T15:37:50;24.9;53.3
78571;SHT31;67861;51.966;5.672;2023-09-18T15:40:20;24.7;54.0
78571;SHT31;67861;51.966;5.672;2023-09-18T15:42:50;24.4;54.7
78571;SHT31;67861;51.966;5.672;2023-09-18T15:45:18;24.2;55.1
78571;SHT31;67861;51.966;5.672;2023-09-18T15:47:47;24.0;56.1
78571;SHT31;67861;51.966;5.672;2023-09-18T15:50:15;23.8;56.9
78571;SHT31;67861;51.966;5.672;2023-09-18T15:52:44;23.6;57.4
78571;SHT31;67861;51.966;5.672;2023-09-18T15:55:14;23.4;57.8
78571;SHT31;67861;51.966;5.672;2023-09-18T15:57:45;23.3;58.5
78571;SHT31;67861;51.966;5.672;2023-09-18T16:00:16;23.1;59.1
78571;SHT31;67861;51.966;5.672;2023-09-18T16:02:45;23.0;59.5
78571;SHT31;67861;51.966;5.672;2023-09-18T16:05:15;22.9;59.9
78571;SHT31;67861;51.966;5.672;2023-09-18T16:07:47;22.8;60.4
78571;SHT31;67861;51.966;5.672;2023-09-18T16:10:18;22.7;61.0
78571;SHT31;67861;51.966;5.672;2023-09-18T16:12:48;22.6;61.2
78571;SHT31;67861;51.966;5.672;2023-09-18T16:15:17;22.5;61.6
78571;SHT31;67861;51.966;5.672;2023-09-18T16:17:45;22.5;61.9
78571;SHT31;67861;51.966;5.672;2023-09-18T16:20:14;22.4;62.3
78571;SHT31;67861;51.966;5.672;2023-09-18T16:22:42;22.4;62.6
78571;SHT31;67861;51.966;5.672;2023-09-18T16:25:13;22.4;62.5